createdAt,value
2019-03-28T00:02:01.418Z,23.10
2019-03-28T00:04:31.923Z,27.77
2019-03-28T00:07:02.398Z,25.30
2019-03-28T00:09:32.984Z,22.03
2019-03-28T00:12:03.549Z,25.13
2019-03-28T00:14:34.116Z,23.70
2019-03-28T00:17:04.722Z,28.47
2019-03-28T00:19:35.306Z,22.97
2019-03-28T00:22:05.997Z,24.47
2019-03-28T00:24:58.374Z,23.20
2019-03-28T00:27:28.841Z,29.70
2019-03-28T00:29:59.386Z,26.30
2019-03-28T00:32:29.994Z,27.00
2019-03-28T00:35:00.731Z,23.30
2019-03-28T00:37:31.219Z,29.67
2019-03-28T00:40:02.035Z,23.23
2019-03-28T00:42:32.565Z,27.77
2019-03-28T00:45:03.075Z,26.03
2019-03-28T00:47:33.516Z,24.57
2019-03-28T00:50:04.355Z,28.03
2019-03-28T00:52:34.897Z,25.40
2019-03-28T00:55:05.702Z,29.50
2019-03-28T00:57:36.157Z,25.10
2019-03-28T01:00:06.967Z,25.70
2019-03-28T01:02:37.451Z,28.93
2019-03-28T01:05:08.077Z,28.97
2019-03-28T01:07:38.525Z,40.40
2019-03-28T01:10:09.018Z,28.33
2019-03-28T01:12:39.620Z,25.80
2019-03-28T01:15:10.073Z,28.60
2019-03-28T01:17:40.528Z,29.77
2019-03-28T01:20:11.090Z,26.73
2019-03-28T01:22:41.625Z,27.43
2019-03-28T01:25:12.154Z,31.00
2019-03-28T01:27:42.690Z,31.70
2019-03-28T01:30:13.278Z,25.27
2019-03-28T01:32:43.840Z,26.10
2019-03-28T01:35:14.342Z,30.67
2019-03-28T01:37:44.791Z,30.07
2019-03-28T01:40:15.324Z,30.30
2019-03-28T01:42:45.788Z,24.30
2019-03-28T01:45:16.265Z,28.77
2019-03-28T01:47:46.744Z,28.67
2019-03-28T01:50:17.331Z,28.00
2019-03-28T01:52:47.790Z,29.43
2019-03-28T01:55:18.278Z,27.63
2019-03-28T01:57:48.786Z,36.47
2019-03-28T02:00:19.413Z,29.33
2019-03-28T02:02:49.938Z,33.40
2019-03-28T02:05:20.548Z,27.83
2019-03-28T02:07:51.071Z,29.97
2019-03-28T02:10:21.646Z,32.70
2019-03-28T02:12:52.210Z,34.40
2019-03-28T02:15:22.910Z,32.33
2019-03-28T02:17:53.295Z,31.83
2019-03-28T02:20:23.799Z,27.53
2019-03-28T02:22:54.338Z,33.60
2019-03-28T02:25:24.922Z,29.90
2019-03-28T02:27:55.457Z,30.30
2019-03-28T02:30:32.921Z,30.27
2019-03-28T02:33:03.528Z,26.63
2019-03-28T02:35:34.074Z,30.43
2019-03-28T02:38:04.586Z,29.13
2019-03-28T02:40:35.084Z,37.50
2019-03-28T02:43:05.659Z,31.57
2019-03-28T02:45:36.155Z,29.87
2019-03-28T02:48:06.766Z,32.77
2019-03-28T02:50:37.830Z,33.97
2019-03-28T02:53:08.563Z,31.90
2019-03-28T02:55:39.078Z,28.70
2019-03-28T02:58:10.780Z,33.67
2019-03-28T03:00:42.309Z,28.40
2019-03-28T03:03:12.730Z,45.07
2019-03-28T03:05:43.321Z,35.80
2019-03-28T03:08:13.869Z,32.43
2019-03-28T03:10:43.998Z,38.10
2019-03-28T03:13:14.837Z,40.67
2019-03-28T03:15:45.415Z,35.37
2019-03-28T03:18:15.969Z,29.40
2019-03-28T03:20:46.544Z,33.47
2019-03-28T03:23:16.987Z,34.60
2019-03-28T03:25:47.511Z,32.30
2019-03-28T03:28:18.010Z,33.70
2019-03-28T03:30:47.629Z,34.23
2019-03-28T03:33:18.128Z,30.40
2019-03-28T03:35:48.589Z,34.93
2019-03-28T03:38:19.066Z,37.87
2019-03-28T03:40:49.640Z,40.50
2019-03-28T03:43:20.216Z,37.60
2019-03-28T03:45:51.192Z,35.60
2019-03-28T03:48:21.691Z,36.00
2019-03-28T03:50:52.179Z,36.23
2019-03-28T03:53:22.683Z,38.07
2019-03-28T03:55:53.701Z,32.87
2019-03-28T03:58:24.214Z,35.67
2019-03-28T04:00:54.744Z,35.63
2019-03-28T04:03:25.339Z,37.20
2019-03-28T04:05:55.789Z,31.87
2019-03-28T04:08:27.059Z,30.20
2019-03-28T04:10:57.948Z,33.20
2019-03-28T04:13:28.449Z,40.33
2019-03-28T04:15:58.929Z,41.00
2019-03-28T04:18:30.317Z,37.73
2019-03-28T04:21:00.847Z,50.20
2019-03-28T04:26:01.902Z,41.87
2019-03-28T04:28:32.854Z,41.53
2019-03-28T04:31:03.449Z,38.37
2019-03-28T04:33:34.014Z,43.27
2019-03-28T04:36:04.545Z,40.67
2019-03-28T04:38:35.399Z,43.60
2019-03-28T04:41:05.881Z,44.83
2019-03-28T04:43:36.381Z,44.83
2019-03-28T04:46:07.033Z,47.50
2019-03-28T04:48:37.599Z,45.00
2019-03-28T04:51:11.847Z,41.67
2019-03-28T04:53:41.816Z,40.00
2019-03-28T04:56:12.512Z,44.37
2019-03-28T04:58:44.805Z,43.37
2019-03-28T05:01:15.581Z,40.60
2019-03-28T05:03:46.068Z,39.13
2019-03-28T05:06:16.540Z,48.83
2019-03-28T05:08:47.182Z,39.23
2019-03-28T05:11:18.151Z,42.63
2019-03-28T05:13:48.768Z,46.93
2019-03-28T05:16:19.301Z,40.33
2019-03-28T05:18:49.779Z,43.70
2019-03-28T05:21:20.238Z,44.17
2019-03-28T05:23:50.721Z,42.23
2019-03-28T05:26:21.194Z,41.37
2019-03-28T05:28:57.416Z,48.40
2019-03-28T05:31:23.853Z,45.57
2019-03-28T05:33:54.402Z,41.73
2019-03-28T05:36:24.850Z,37.83
2019-03-28T05:38:55.359Z,36.23
2019-03-28T05:41:25.866Z,38.70
2019-03-28T05:43:56.372Z,46.73
2019-03-28T05:46:26.815Z,40.63
2019-03-28T05:48:57.388Z,35.30
2019-03-28T05:51:27.833Z,43.20
2019-03-28T05:53:58.346Z,45.53
2019-03-28T05:56:28.975Z,38.63
2019-03-28T05:59:10.307Z,41.27
2019-03-28T06:01:32.325Z,39.23
2019-03-28T06:04:03.053Z,41.07
2019-03-28T06:06:33.506Z,35.97
2019-03-28T06:09:05.674Z,38.00
2019-03-28T06:11:36.158Z,45.03
2019-03-28T06:14:06.805Z,44.90
2019-03-28T06:16:37.266Z,40.73
2019-03-28T06:19:07.777Z,37.70
2019-03-28T06:21:39.570Z,42.37
2019-03-28T06:24:11.310Z,41.77
2019-03-28T06:26:41.782Z,49.13
2019-03-28T06:29:23.163Z,47.40
2019-03-28T06:31:54.613Z,47.33
2019-03-28T06:34:16.497Z,41.07
2019-03-28T06:36:46.964Z,52.43
2019-03-28T06:39:17.463Z,45.97
2019-03-28T06:41:48.548Z,46.83
2019-03-28T06:44:19.310Z,48.43
2019-03-28T06:46:50.604Z,42.17
2019-03-28T06:49:21.113Z,49.60
2019-03-28T06:51:51.586Z,44.17
2019-03-28T06:54:24.329Z,44.67
2019-03-28T06:56:54.293Z,51.23
2019-03-28T06:59:36.799Z,48.50
2019-03-28T07:01:57.027Z,51.10
2019-03-28T07:04:27.506Z,41.43
2019-03-28T07:06:58.026Z,42.57
2019-03-28T07:09:28.620Z,38.63
2019-03-28T07:11:59.074Z,37.80
2019-03-28T07:14:31.943Z,29.47
2019-03-28T07:17:03.630Z,31.27
2019-03-28T07:19:34.283Z,33.90
2019-03-28T07:22:04.905Z,32.10
2019-03-28T07:24:35.413Z,30.87
2019-03-28T07:27:06.058Z,26.10
2019-03-28T07:29:49.832Z,27.30
2019-03-28T07:32:09.115Z,31.50
2019-03-28T07:34:39.592Z,25.50
2019-03-28T07:37:10.500Z,26.63
2019-03-28T07:39:41.153Z,32.07
2019-03-28T07:42:11.673Z,21.97
2019-03-28T07:44:42.318Z,24.97
2019-03-28T07:47:12.854Z,24.80
2019-03-28T07:49:43.433Z,19.07
2019-03-28T07:52:13.919Z,21.73
2019-03-28T07:54:44.596Z,23.10
2019-03-28T07:57:15.401Z,19.30
2019-03-28T07:59:46.101Z,24.40
2019-03-28T08:02:16.689Z,23.27
2019-03-28T08:04:47.454Z,18.37
2019-03-28T08:07:17.952Z,22.00
2019-03-28T08:14:45.985Z,25.43
2019-03-28T08:17:16.470Z,19.60
2019-03-28T08:19:46.917Z,27.90
2019-03-28T08:22:17.394Z,26.23
2019-03-28T08:24:47.948Z,23.23
2019-03-28T08:27:18.428Z,25.77
2019-03-28T08:29:48.950Z,24.47
2019-03-28T08:32:22.654Z,31.27
2019-03-28T08:34:53.139Z,24.03
2019-03-28T08:37:24.712Z,23.37
2019-03-28T08:39:55.772Z,23.77
2019-03-28T08:42:26.573Z,19.80
2019-03-28T08:44:57.046Z,22.40
2019-03-28T08:47:27.667Z,23.97
2019-03-28T08:49:58.824Z,16.40
2019-03-28T08:52:29.445Z,17.80
2019-03-28T08:54:59.933Z,19.47
2019-03-28T08:57:30.515Z,25.00
2019-03-28T09:00:00.967Z,16.87
2019-03-28T09:02:31.555Z,21.07
2019-03-28T09:05:02.464Z,16.87
2019-03-28T09:07:34.006Z,17.97
2019-03-28T09:10:04.845Z,19.67
2019-03-28T09:12:35.815Z,14.67
2019-03-28T09:15:07.039Z,18.63
2019-03-28T09:17:37.520Z,15.80
2019-03-28T09:20:08.210Z,20.13
2019-03-28T09:22:39.172Z,14.60
2019-03-28T09:25:09.754Z,13.33
2019-03-28T09:27:40.394Z,13.33
2019-03-28T09:30:11.071Z,14.33
2019-03-28T09:32:47.614Z,12.20
2019-03-28T09:35:28.520Z,15.07
2019-03-28T09:37:59.089Z,12.57
2019-03-28T09:40:29.610Z,16.60
2019-03-28T09:43:00.086Z,9.80
2019-03-28T09:45:30.478Z,11.00
2019-03-28T09:48:00.106Z,14.30
2019-03-28T09:50:30.582Z,15.73
2019-03-28T09:53:01.049Z,11.33
2019-03-28T09:55:31.531Z,11.57
2019-03-28T09:58:02.018Z,15.40
2019-03-28T10:00:32.995Z,11.93
2019-03-28T10:03:04.126Z,14.13
2019-03-28T10:05:37.817Z,11.50
2019-03-28T10:08:06.692Z,14.70
2019-03-28T10:10:37.187Z,13.70
2019-03-28T10:13:07.668Z,13.50
2019-03-28T10:15:38.221Z,13.27
2019-03-28T10:18:08.702Z,15.37
2019-03-28T10:20:39.166Z,13.77
2019-03-28T10:23:09.648Z,15.63
2019-03-28T10:25:40.630Z,10.37
2019-03-28T10:28:11.266Z,9.60
2019-03-28T10:30:43.661Z,12.10
2019-03-28T10:33:14.129Z,15.57
2019-03-28T10:35:44.591Z,14.33
2019-03-28T10:38:15.170Z,10.13
2019-03-28T10:40:44.727Z,10.63
2019-03-28T10:43:15.193Z,15.90
2019-03-28T10:45:45.749Z,10.47
2019-03-28T10:48:16.228Z,15.60
2019-03-28T10:50:46.721Z,9.87
2019-03-28T10:53:17.263Z,10.80
2019-03-28T10:55:47.743Z,11.20
2019-03-28T10:58:19.558Z,10.43
2019-03-28T11:00:50.365Z,12.43
2019-03-28T11:03:20.821Z,11.20
2019-03-28T11:05:51.342Z,11.33
2019-03-28T11:08:21.822Z,18.63
2019-03-28T11:10:52.273Z,11.83
2019-03-28T11:13:22.726Z,9.07
2019-03-28T11:15:53.286Z,11.83
2019-03-28T11:20:49.816Z,12.37
2019-03-28T11:23:20.359Z,10.83
2019-03-28T11:25:50.868Z,8.33
2019-03-28T11:28:23.423Z,13.77
2019-03-28T11:30:53.772Z,12.60
2019-03-28T11:33:25.797Z,15.73
2019-03-28T11:35:56.362Z,9.97
2019-03-28T11:38:26.869Z,17.13
2019-03-28T11:40:57.322Z,13.47
2019-03-28T11:43:27.920Z,15.50
2019-03-28T11:45:58.400Z,14.00
2019-03-28T11:48:28.950Z,12.87
2019-03-28T11:50:59.754Z,12.43
2019-03-28T11:53:30.250Z,13.60
2019-03-28T11:56:00.767Z,12.03
2019-03-28T11:58:32.626Z,12.77
2019-03-28T12:01:03.206Z,10.60
2019-03-28T12:03:33.725Z,11.73
2019-03-28T12:06:04.287Z,8.63
2019-03-28T12:08:34.838Z,11.33
2019-03-28T12:11:05.782Z,14.53
2019-03-28T12:13:44.603Z,15.93
2019-03-28T12:16:08.435Z,9.53
2019-03-28T12:18:38.984Z,11.30
2019-03-28T12:21:09.476Z,10.67
2019-03-28T12:23:39.964Z,10.17
2019-03-28T12:26:10.519Z,10.33
2019-03-28T12:28:41.080Z,9.37
2019-03-28T12:31:11.558Z,10.67
2019-03-28T12:33:42.074Z,8.17
2019-03-28T12:36:12.623Z,13.20
2019-03-28T12:38:43.100Z,10.90
2019-03-28T12:41:13.571Z,10.23
2019-03-28T12:43:44.167Z,9.60
2019-03-28T12:46:14.654Z,11.13
2019-03-28T12:48:45.252Z,8.10
2019-03-28T12:51:15.772Z,12.20
2019-03-28T12:53:46.274Z,7.43
2019-03-28T12:56:16.841Z,12.07
2019-03-28T12:58:48.003Z,8.40
2019-03-28T13:01:18.960Z,8.90
2019-03-28T13:03:49.436Z,11.93
2019-03-28T13:06:19.994Z,6.93
2019-03-28T13:08:50.494Z,8.57
2019-03-28T13:11:21.006Z,8.57
2019-03-28T13:13:51.622Z,7.97
2019-03-28T13:16:22.240Z,7.17
2019-03-28T13:19:05.399Z,9.87
2019-03-28T13:21:35.943Z,10.10
2019-03-28T13:24:07.842Z,10.30
2019-03-28T13:26:38.744Z,13.30
2019-03-28T13:29:10.412Z,9.60
2019-03-28T13:31:41.082Z,15.33
2019-03-28T13:34:11.569Z,9.30
2019-03-28T13:36:42.470Z,8.03
2019-03-28T13:39:13.081Z,10.07
2019-03-28T13:41:44.528Z,8.83
2019-03-28T13:44:15.296Z,16.20
2019-03-28T13:46:45.880Z,8.60
2019-03-28T13:49:16.449Z,10.33
2019-03-28T13:51:46.931Z,11.63
2019-03-28T13:54:17.487Z,14.83
2019-03-28T13:56:48.103Z,10.80
2019-03-28T13:59:18.608Z,16.70
2019-03-28T14:01:49.155Z,10.83
2019-03-28T14:04:19.691Z,14.93
2019-03-28T14:06:50.243Z,10.60
2019-03-28T14:09:23.307Z,12.30
2019-03-28T14:11:53.112Z,13.70
2019-03-28T14:14:23.619Z,13.97
2019-03-28T14:16:54.196Z,13.07
2019-03-28T14:19:24.851Z,12.67
2019-03-28T14:21:55.418Z,13.53
2019-03-28T14:24:25.988Z,13.80
2019-03-28T14:26:56.520Z,12.83
2019-03-28T14:29:29.805Z,15.57
2019-03-28T14:32:00.015Z,13.80
2019-03-28T14:34:30.730Z,20.50
2019-03-28T14:37:01.225Z,15.03
2019-03-28T14:39:31.756Z,11.13
2019-03-28T14:42:02.211Z,14.03
2019-03-28T14:44:32.824Z,14.33
2019-03-28T14:47:03.423Z,11.70
2019-03-28T14:49:33.979Z,14.63
2019-03-28T14:52:04.697Z,15.50
2019-03-28T14:54:35.278Z,10.97
2019-03-28T14:57:05.804Z,13.93
2019-03-28T14:59:36.429Z,14.03
2019-03-28T15:02:06.901Z,13.90
2019-03-28T15:04:37.466Z,13.20
2019-03-28T15:07:08.161Z,16.87
2019-03-28T15:09:38.782Z,20.57
2019-03-28T15:12:09.268Z,11.83
2019-03-28T15:14:40.003Z,11.43
2019-03-28T15:17:10.603Z,13.27
2019-03-28T15:19:41.156Z,16.30
2019-03-28T15:22:12.490Z,17.03
2019-03-28T15:24:43.127Z,12.20
2019-03-28T15:27:13.655Z,9.47
2019-03-28T15:29:44.160Z,18.57
2019-03-28T15:32:14.609Z,10.87
2019-03-28T15:34:45.155Z,14.53
2019-03-28T15:37:15.648Z,17.10
2019-03-28T15:39:46.167Z,17.70
2019-03-28T15:42:16.595Z,13.73
2019-03-28T15:44:47.130Z,11.70
2019-03-28T15:47:17.797Z,13.83
2019-03-28T15:49:48.614Z,11.13
2019-03-28T15:52:19.071Z,14.07
2019-03-28T15:54:49.628Z,14.50
2019-03-28T15:57:20.080Z,14.30
2019-03-28T15:59:51.262Z,18.93
2019-03-28T16:02:21.786Z,14.17
2019-03-28T16:04:52.401Z,15.20
2019-03-28T16:07:22.909Z,16.30
2019-03-28T16:09:53.386Z,19.47
2019-03-28T16:12:23.910Z,16.10
2019-03-28T16:14:54.398Z,15.87
2019-03-28T16:17:24.854Z,15.50
2019-03-28T16:20:04.813Z,14.20
2019-03-28T16:22:35.261Z,15.70
2019-03-28T16:25:05.965Z,11.83
2019-03-28T16:27:38.012Z,24.23
2019-03-28T16:30:08.977Z,13.30
2019-03-28T16:32:39.513Z,12.43
2019-03-28T16:35:10.018Z,11.77
2019-03-28T16:37:40.502Z,15.40
2019-03-28T16:40:10.998Z,11.37
2019-03-28T16:42:41.835Z,23.50
2019-03-28T16:45:12.545Z,24.90
2019-03-28T16:47:43.007Z,17.07
2019-03-28T16:50:13.635Z,14.53
2019-03-28T16:52:44.120Z,26.87
2019-03-28T16:55:25.820Z,46.60
2019-03-28T16:57:46.786Z,20.00
2019-03-28T17:00:17.483Z,22.13
2019-03-28T17:02:47.967Z,18.27
2019-03-28T17:05:18.490Z,19.90
2019-03-28T17:07:49.055Z,18.23
2019-03-28T17:10:36.376Z,16.13
2019-03-28T17:13:07.669Z,13.57
2019-03-28T17:15:38.323Z,15.57
2019-03-28T17:18:08.881Z,17.00
2019-03-28T17:20:39.443Z,16.50
2019-03-28T17:23:09.981Z,18.20
2019-03-28T17:25:40.679Z,16.80
2019-03-28T17:28:11.283Z,16.00
2019-03-28T17:30:41.711Z,17.13
2019-03-28T17:33:12.153Z,12.97
2019-03-28T17:35:42.900Z,14.17
2019-03-28T17:38:13.492Z,18.07
2019-03-28T17:40:44.361Z,15.57
2019-03-28T17:43:15.816Z,12.77
2019-03-28T17:45:46.794Z,12.27
2019-03-28T17:48:17.353Z,12.17
2019-03-28T17:50:47.815Z,11.90
2019-03-28T17:53:19.487Z,13.97
2019-03-28T17:55:50.163Z,17.10
2019-03-28T17:58:20.707Z,16.90
2019-03-28T18:00:51.189Z,10.80
2019-03-28T18:03:31.093Z,10.97
2019-03-28T18:05:58.463Z,15.10
2019-03-28T18:08:26.131Z,12.50
2019-03-28T18:11:00.168Z,13.60
2019-03-28T18:13:29.175Z,12.97
2019-03-28T18:15:59.913Z,11.23
2019-03-28T18:18:30.994Z,14.00
2019-03-28T18:21:01.478Z,16.13
2019-03-28T18:23:31.973Z,14.70
2019-03-28T18:26:03.595Z,16.57
2019-03-28T18:28:34.071Z,21.77
2019-03-28T18:31:04.555Z,15.63
2019-03-28T18:33:35.038Z,12.60
2019-03-28T18:36:05.498Z,10.73
2019-03-28T18:38:36.734Z,12.23
2019-03-28T18:41:07.480Z,19.73
2019-03-28T18:43:38.068Z,11.43
2019-03-28T18:46:07.856Z,15.40
2019-03-28T18:48:38.511Z,16.77
2019-03-28T18:51:10.070Z,11.37
2019-03-28T18:53:40.780Z,13.27
2019-03-28T18:56:11.520Z,15.00
2019-03-28T18:58:42.123Z,13.50
2019-03-28T19:01:12.942Z,14.37
2019-03-28T19:03:43.715Z,11.53
2019-03-28T19:06:15.073Z,10.67
2019-03-28T19:08:45.853Z,11.40
2019-03-28T19:11:16.398Z,11.83
2019-03-28T19:13:49.546Z,13.83
2019-03-28T19:16:21.753Z,13.97
2019-03-28T19:18:52.512Z,15.00
2019-03-28T19:21:22.974Z,12.63
2019-03-28T19:23:53.461Z,11.17
2019-03-28T19:31:22.312Z,12.63
2019-03-28T19:33:52.796Z,12.77
2019-03-28T19:36:23.424Z,13.00
2019-03-28T19:38:53.904Z,13.53
2019-03-28T19:41:24.755Z,12.97
2019-03-28T19:43:55.472Z,12.20
2019-03-28T19:46:25.951Z,12.83
2019-03-28T19:48:56.431Z,11.83
2019-03-28T19:51:28.357Z,12.00
2019-03-28T19:53:59.329Z,13.03
2019-03-28T19:56:29.938Z,17.50
2019-03-28T19:59:00.504Z,13.73
2019-03-28T20:01:31.068Z,12.20
2019-03-28T20:04:01.644Z,14.20
2019-03-28T20:06:32.113Z,15.87
2019-03-28T20:09:15.375Z,15.03
2019-03-28T20:11:34.781Z,15.13
2019-03-28T20:14:05.382Z,19.23
2019-03-28T20:16:35.867Z,17.50
2019-03-28T20:19:06.346Z,17.73
2019-03-28T20:21:36.886Z,9.13
2019-03-28T20:24:07.498Z,15.27
2019-03-28T20:26:38.195Z,11.10
2019-03-28T20:29:08.902Z,14.80
2019-03-28T20:31:39.644Z,9.83
2019-03-28T20:34:10.358Z,14.23
2019-03-28T20:36:43.839Z,17.10
2019-03-28T20:39:13.061Z,14.93
2019-03-28T20:41:43.608Z,15.83
2019-03-28T20:44:14.205Z,13.43
2019-03-28T20:46:46.672Z,13.83
2019-03-28T20:49:17.342Z,11.97
2019-03-28T20:51:47.868Z,12.90
2019-03-28T20:54:18.436Z,12.43
2019-03-28T20:56:49.011Z,13.10
2019-03-28T20:59:20.714Z,14.37
2019-03-28T21:01:51.219Z,11.30
2019-03-28T21:04:31.268Z,21.93
2019-03-28T21:06:53.856Z,9.63
2019-03-28T21:09:24.393Z,14.20
2019-03-28T21:11:54.915Z,18.80
2019-03-28T21:14:25.404Z,12.57
2019-03-28T21:16:58.105Z,13.87
2019-03-28T21:19:28.835Z,12.53
2019-03-28T21:22:00.256Z,21.10
2019-03-28T21:24:30.840Z,16.13
2019-03-28T21:27:01.381Z,14.80
2019-03-28T21:29:33.967Z,14.63
2019-03-28T21:32:03.929Z,14.17
2019-03-28T21:34:34.429Z,16.13
2019-03-28T21:37:06.405Z,14.57
2019-03-28T21:39:40.116Z,14.87
2019-03-28T21:42:10.364Z,13.00
2019-03-28T21:44:41.731Z,19.10
2019-03-28T21:47:12.210Z,15.83
2019-03-28T21:49:42.762Z,19.90
2019-03-28T21:52:14.105Z,15.40
2019-03-28T21:54:45.547Z,16.23
2019-03-28T21:57:16.192Z,17.33
2019-03-28T21:59:46.720Z,16.70
2019-03-28T22:02:17.351Z,15.60
2019-03-28T22:04:47.902Z,17.50
2019-03-28T22:07:18.347Z,18.57
2019-03-28T22:09:48.944Z,23.10
2019-03-28T22:12:19.417Z,18.27
2019-03-28T22:14:50.145Z,23.80
2019-03-28T22:17:20.644Z,17.87
2019-03-28T22:19:51.825Z,16.10
2019-03-28T22:22:22.539Z,14.53
2019-03-28T22:24:53.030Z,16.90
2019-03-28T22:27:23.906Z,15.60
2019-03-28T22:29:54.544Z,13.10
2019-03-28T22:32:25.009Z,24.57
2019-03-28T22:34:55.484Z,15.30
2019-03-28T22:37:25.947Z,15.13
2019-03-28T22:39:56.483Z,15.97
2019-03-28T22:42:27.011Z,14.10
2019-03-28T22:44:57.610Z,13.43
2019-03-28T22:47:28.066Z,19.30
2019-03-28T22:49:58.556Z,16.27
2019-03-28T22:52:29.185Z,17.37
2019-03-28T22:54:59.710Z,19.80
2019-03-28T22:57:31.454Z,18.23
2019-03-28T23:00:04.367Z,17.20
2019-03-28T23:02:35.170Z,22.20
2019-03-28T23:05:06.412Z,16.50
2019-03-28T23:07:36.982Z,18.13
2019-03-28T23:10:08.389Z,16.87
2019-03-28T23:12:38.971Z,28.13
2019-03-28T23:15:10.859Z,20.20
2019-03-28T23:17:41.476Z,20.20
2019-03-28T23:20:12.122Z,30.97
2019-03-28T23:22:42.633Z,20.40
2019-03-28T23:25:13.238Z,19.03
2019-03-28T23:27:43.696Z,24.70
2019-03-28T23:30:14.269Z,21.20
2019-03-28T23:32:44.709Z,18.60
2019-03-28T23:35:15.223Z,17.47
2019-03-28T23:37:45.750Z,21.73
2019-03-28T23:40:16.302Z,18.67
2019-03-28T23:42:46.771Z,20.23
2019-03-28T23:45:17.421Z,22.13
2019-03-28T23:47:47.925Z,19.50
2019-03-28T23:50:18.550Z,20.57
2019-03-28T23:52:49.091Z,22.10
2019-03-28T23:55:19.641Z,20.17
2019-03-28T23:57:50.106Z,17.60
